Pescara - LIBP

Metar : METAR LIBP 242050Z AUTO 22004KT 190V290 9999 SCT081/// 12/11 Q1016=

Taf : TAF LIBP 241700Z 2418/2518 VRB05KT 9999 SCT040 TEMPO 2418/2421 RA=

 Scopri come leggere i bollettini codificati...


Storico

LIBP 242050Z AUTO 22004KT 190V290 9999 SCT081/// 12/11 Q1016
LIBP 242020Z AUTO VRB02KT 9999 FEW091/// 12/11 Q1016
LIBP 241950Z AUTO VRB02KT 9000 FEW100/// 13/12 Q1015
LIBP 241920Z AUTO 03004KT 010V070 7000 NCD 13/12 Q1015
LIBP 241850Z AUTO VRB02KT 1600 BR NCD 13/13 Q1015
LIBP 241820Z AUTO 19005KT 2200 BR NCD 13/13 Q1016
LIBP 241750Z AUTO 28004KT 7000 NCD 14/13 Q1016
LIBP 241720Z AUTO 21004KT 9999 SCT017/// 13/12 Q1016
LIBP 241650Z AUTO VRB02KT 9999 BKN016/// 15/14 Q1016
LIBP 241550Z AUTO VRB02KT 9999 -RA BKN018/// BKN044/// OVC074/// 17/14 Q1016 RERA
LIBP 241520Z AUTO 29004KT 250V350 9999 -RA BKN019/// OVC076/// 17/14 Q1016
LIBP 241450Z AUTO 02003KT 330V050 9999 -RA FEW016/// BKN086/// 18/14 Q1016
LIBP 241420Z AUTO 01004KT 350V050 9999 BKN089/// 18/15 Q1015
LIBP 241350Z AUTO 04005KT 9999 BKN098/// 18/15 Q1015
LIBP 241320Z AUTO 01006KT 330V040 9999 FEW076/// SCT150/// 18/15 Q1015
LIBP 241250Z AUTO 02007KT 350V050 9999 BKN078/// BKN180/// 18/15 Q1015
LIBP 241220Z AUTO VRB01KT 9999 BKN085/// BKN180/// 18/16 Q1015
LIBP 241150Z AUTO VRB02KT 9999 BKN092/// BKN130/// 17/16 Q1015
LIBP 241120Z AUTO VRB02KT 9999 FEW097/// BKN120/// 17/15 Q1016
LIBP 241050Z AUTO 25004KT 220V290 9999 FEW097/// BKN100/// 16/15 Q1016
LIBP 241020Z AUTO 19005KT 140V270 9999 OVC092/// 16/15 Q1016
LIBP 240950Z AUTO VRB02KT 9999 -RA OVC100/// 16/15 Q1017
LIBP 240920Z AUTO 17003KT 9999 -RA OVC093/// 15/14 Q1017
LIBP 240850Z AUTO VRB02KT 9999 -RA OVC098/// 14/14 Q1018
LIBP 240820Z AUTO VRB01KT 7000 -RA OVC086/// 14/13 Q1018 RERA
LIBP 240750Z AUTO VRB02KT 9999 -RA OVC096/// 14/13 Q1018
LIBP 240720Z AUTO VRB01KT 9999 -RA OVC087/// 13/12 Q1017
LIBP 240650Z AUTO VRB02KT 9000 -RA OVC100/// 13/12 Q1018
LIBP 240620Z AUTO VRB01KT 9999 -RA OVC100/// 13/11 Q1018
LIBP 240550Z AUTO VRB02KT 9999 -RA OVC092/// 13/11 Q1017
LIBP 240520Z AUTO VRB02KT 9999 SCT088/// OVC130/// 13/11 Q1017
LIBP 240450Z AUTO 22003KT 9999 OVC130/// 13/11 Q1018
LIBP 240420Z AUTO 23004KT 9999 BKN120/// 13/11 Q1018
LIBP 240350Z AUTO 25005KT 150V280 9999 FEW100/// BKN130/// BKN230/// 13/11 Q1018
LIBP 240320Z AUTO 20004KT 9999 BKN130/// BKN190/// 12/11 Q1018
LIBP 240250Z AUTO 20003KT 9999 BKN140/// BKN180/// 12/11 Q1018
LIBP 240220Z AUTO VRB02KT 9999 FEW160/// BKN200/// 12/10 Q1019
LIBP 240150Z AUTO 22003KT 190V260 9999 FEW160/// BKN200/// 12/11 Q1018
LIBP 240120Z AUTO 23003KT 9999 OVC200/// 12/11 Q1019
LIBP 240050Z AUTO 22005KT 9999 OVC200/// 12/11 Q1019
LIBP 240020Z AUTO 23004KT 9999 BKN220/// 12/11 Q1019
LIBP 232350Z AUTO 23003KT 9999 BKN230/// 12/10 Q1019
LIBP 232320Z AUTO 24004KT 9999 FEW240/// 12/11 Q1019
LIBP 232250Z AUTO 18002KT 9999 SCT240/// 12/10 Q1019
LIBP 232220Z AUTO 23003KT 180V240 9999 SCT230/// 12/11 Q1019
LIBP 232150Z AUTO 20003KT 180V240 9999 BKN230/// 12/11 Q1019
LIBP 232120Z AUTO 21003KT 9999 BKN240/// 13/11 Q1019
LIBP 232050Z AUTO 23003KT 9999 BKN240/// 13/11 Q1020
LIBP 232020Z AUTO 24002KT 9999 BKN240/// 13/11 Q1020
LIBP 231950Z AUTO 24004KT 9999 FEW240/// 14/12 Q1020
LIBP 231920Z AUTO 24004KT 9999 NCD 14/11 Q1020
LIBP 231850Z AUTO 23004KT 9999 NCD 14/12 Q1020
LIBP 231750Z AUTO VRB01KT 9999 NCD 15/12 Q1021
LIBP 231720Z AUTO VRB01KT 9999 NCD 15/12 Q1021
LIBP 231650Z AUTO VRB02KT 9999 NCD 16/13 Q1021
LIBP 231620Z AUTO 08002KT 9999 FEW240/// 17/12 Q1020
LIBP 231550Z AUTO VRB02KT 9999 SCT240/// 18/12 Q1020
LIBP 231520Z AUTO 05003KT 9999 FEW230/// 18/13 Q1020
LIBP 231450Z AUTO 08003KT 040V100 9999 FEW220/// 19/13 Q1020
LIBP 231420Z AUTO 08005KT 9999 BKN210/// 19/13 Q1020
LIBP 231350Z AUTO 06006KT 9999 BKN200/// 20/12 Q1020
LIBP 231320Z AUTO 07006KT 030V090 9999 BKN220/// 20/10 Q1020
LIBP 231250Z AUTO 08006KT 9999 FEW220/// 20/10 Q1020
LIBP 231220Z AUTO 06007KT 9999 FEW240/// 21/11 Q1021
LIBP 231150Z AUTO 06007KT 9999 FEW220/// 22/10 Q1021
LIBP 231120Z AUTO 07006KT 040V100 9999 NCD 22/10 Q1021
LIBP 231050Z AUTO 04006KT 010V090 9999 NCD 21/10 Q1022
LIBP 231020Z AUTO 06006KT 030V100 9999 NCD 20/11 Q1022
LIBP 230950Z AUTO 05006KT 9999 NCD 20/11 Q1022
LIBP 230920Z AUTO 09003KT 030V190 9999 NCD 20/08 Q1022
LIBP 230850Z AUTO 23003KT 160V300 9999 NCD 19/08 Q1022
LIBP 230820Z AUTO 24004KT 210V270 9999 NCD 16/08 Q1022
LIBP 230750Z AUTO 23005KT 9999 NCD 15/08 Q1023
LIBP 230720Z AUTO 23005KT 9999 NCD 13/09 Q1023
LIBP 230650Z AUTO 23003KT 9999 NCD 11/08 Q1023
LIBP 230620Z AUTO 21004KT 9999 NCD 09/08 Q1023
LIBP 230550Z AUTO 22005KT 9999 NCD 08/07 Q1023
LIBP 230520Z AUTO 20004KT 9999 NCD 07/06 Q1023
LIBP 230450Z AUTO 24003KT 9999 NCD 08/07 Q1023
LIBP 230350Z AUTO 21004KT 9999 NCD 08/07 Q1023
LIBP 230320Z AUTO 20005KT 9999 NCD 08/07 Q1023
LIBP 230250Z AUTO 23004KT 9999 NCD 08/07 Q1023
LIBP 230220Z AUTO 24005KT 9999 NCD 08/08 Q1023
LIBP 230150Z AUTO 20006KT 9000 NCD 08/08 Q1023
LIBP 230120Z AUTO 22006KT 9000 NCD 08/07 Q1023
LIBP 230050Z AUTO 22004KT 9000 NCD 08/08 Q1023
LIBP 230020Z AUTO 23004KT 8000 NCD 09/08 Q1024
LIBP 222350Z AUTO 23003KT 9999 NCD 09/08 Q1024
LIBP 222320Z AUTO 24004KT 9999 NCD 10/09 Q1024
LIBP 222250Z AUTO 24003KT 9999 NCD 10/09 Q1024
LIBP 222220Z AUTO 21005KT 9000 NCD 10/09 Q1024
LIBP 222150Z AUTO 24004KT 9999 NCD 11/10 Q1024
LIBP 222120Z AUTO 21005KT 9999 NCD 11/10 Q1024
LIBP 222050Z AUTO 23004KT 9999 NCD 11/09 Q1024
LIBP 222020Z AUTO 24004KT 9999 NCD 12/10 Q1025
LIBP 221950Z AUTO 23004KT 9999 NCD 12/11 Q1024
LIBP 221920Z AUTO 23004KT 9999 NCD 12/11 Q1024
LIBP 221850Z AUTO 20003KT 9999 NCD 12/11 Q1024
LIBP 221820Z AUTO 25001KT 9999 FEW240/// 13/12 Q1024
LIBP 221750Z AUTO VRB02KT 9999 NCD 14/12 Q1024
LIBP 221720Z AUTO 10004KT 9999 NCD 15/12 Q1024
LIBP 221650Z AUTO 04003KT 010V070 9999 NCD 16/13 Q1024
LIBP 221620Z AUTO 08003KT 050V110 9999 NCD 16/13 Q1023
LIBP 221550Z AUTO 08005KT 9999 NCD 17/13 Q1023
LIBP 221450Z AUTO 07007KT 9999 NCD 19/12 Q1023
LIBP 221420Z AUTO 08007KT 9999 NCD 19/12 Q1023
LIBP 221350Z AUTO 07007KT 9999 NCD 19/12 Q1023
LIBP 221320Z AUTO 07007KT 9999 NCD 20/12 Q1023
LIBP 221250Z AUTO 07007KT 030V090 9999 NCD 20/12 Q1023
LIBP 221220Z AUTO 09008KT 9999 NCD 19/11 Q1024
LIBP 221150Z AUTO 09007KT 050V110 9999 NCD 20/11 Q1024
LIBP 221120Z AUTO 06007KT 030V100 9999 NCD 20/11 Q1025
LIBP 221050Z AUTO 07005KT 030V110 9999 NCD 20/10 Q1025
LIBP 221020Z AUTO 02004KT 330V070 9999 NCD 19/09 Q1025
LIBP 220950Z AUTO 08003KT 350V150 9999 NCD 19/09 Q1026
LIBP 220920Z AUTO VRB02KT 9999 NCD 18/09 Q1026
LIBP 220850Z AUTO 21003KT 150V280 9999 NCD 17/08 Q1026
LIBP 220820Z AUTO 22004KT 9999 NCD 16/08 Q1026
LIBP 220750Z AUTO 24005KT 9999 NCD 14/08 Q1026
LIBP 220720Z AUTO 23004KT 9999 NCD 12/08 Q1026
LIBP 220650Z AUTO 22005KT 9999 NCD 10/08 Q1026
LIBP 220620Z AUTO 23004KT 9999 NCD 08/07 Q1025
LIBP 220550Z AUTO 22004KT 9999 NCD 07/06 Q1025
LIBP 220520Z AUTO 21005KT 9999 NCD 07/06 Q1025
LIBP 220450Z AUTO 22004KT 9999 NCD 07/06 Q1025
LIBP 220420Z AUTO 21005KT 9999 NCD 07/06 Q1025
LIBP 220350Z AUTO 21005KT 9999 NCD 07/06 Q1025
LIBP 220320Z AUTO 23004KT 9999 NCD 08/07 Q1024
LIBP 220250Z AUTO 22005KT 9999 NCD 07/06 Q1025
LIBP 220220Z AUTO 21006KT 9999 NCD 07/07 Q1025
LIBP 220150Z AUTO 21005KT 9999 NCD 08/07 Q1025
LIBP 220120Z AUTO 24004KT 9999 NCD 08/07 Q1025
LIBP 220050Z AUTO 21004KT 9999 NCD 08/07 Q1025
LIBP 220020Z AUTO 22006KT 9999 NCD 08/07 Q1025
LIBP 212350Z AUTO 24004KT 9999 NCD 09/08 Q1025
LIBP 212320Z AUTO 20006KT 9999 NCD 09/08 Q1025
LIBP 212250Z AUTO 23003KT 9999 NCD 09/08 Q1025
LIBP 212220Z AUTO 24003KT 9999 NCD 10/09 Q1025
LIBP 212150Z AUTO 22004KT 9999 NCD 10/08 Q1025
LIBP 212120Z AUTO 23004KT 9999 NCD 11/09 Q1025
LIBP 212050Z AUTO 24003KT 9999 NCD 11/09 Q1025
LIBP 212020Z AUTO 23004KT 9999 NCD 11/10 Q1024
LIBP 211950Z AUTO 22002KT 9999 NCD 11/09 Q1024
LIBP 211920Z AUTO 22005KT 9999 NCD 12/10 Q1024
LIBP 211850Z AUTO VRB02KT 9999 NCD 12/09 Q1024
LIBP 211820Z AUTO VRB02KT 9999 NCD 13/10 Q1024
LIBP 211750Z AUTO VRB01KT 9999 NCD 14/10 Q1024
LIBP 211720Z AUTO 08003KT 360V170 9999 NCD 15/10 Q1024
LIBP 211650Z AUTO VRB02KT 9999 NCD 17/10 Q1024
LIBP 211620Z AUTO 08003KT 020V120 9999 NCD 17/10 Q1024
LIBP 211550Z AUTO 09005KT 070V130 9999 NCD 18/10 Q1024
LIBP 211520Z AUTO 11007KT 9999 NCD 19/10 Q1024
LIBP 211450Z AUTO 08006KT 9999 NCD 19/10 Q1024
LIBP 211420Z AUTO 08006KT 9999 NCD 19/10 Q1024
LIBP 211350Z AUTO 09005KT 9999 NCD 19/09 Q1024
LIBP 211320Z AUTO 07006KT 9999 NCD 19/08 Q1024
LIBP 211250Z AUTO 06006KT 9999 NCD 19/08 Q1024
LIBP 211220Z AUTO 07006KT 9999 NCD 19/09 Q1024
LIBP 211150Z AUTO 05006KT 9999 NCD 19/09 Q1024
LIBP 211120Z AUTO 06006KT 030V090 9999 NCD 19/10 Q1025
LIBP 211050Z AUTO 05006KT 020V080 9999 NCD 18/10 Q1025
LIBP 211020Z AUTO 06007KT 9999 NCD 19/10 Q1025
LIBP 210950Z AUTO 05007KT 9999 NCD 18/11 Q1025
LIBP 210920Z AUTO 06004KT 010V100 9999 NCD 18/09 Q1025
LIBP 210850Z AUTO VRB02KT 9999 NCD 17/08 Q1025
LIBP 210820Z AUTO 20004KT 180V240 9999 NCD 15/08 Q1025
LIBP 210750Z AUTO 22004KT 200V260 9999 NCD 13/08 Q1025
LIBP 210720Z AUTO 23004KT 9999 NCD 11/08 Q1025
LIBP 210650Z AUTO 21004KT 9999 NCD 09/07 Q1025
LIBP 210620Z AUTO 23005KT 9999 NCD 08/07 Q1025
LIBP 210550Z AUTO 22004KT 9999 NCD 07/06 Q1024
LIBP 210520Z AUTO 20005KT 9999 NCD 06/05 Q1024
LIBP 210450Z AUTO 23004KT 9999 NCD 07/06 Q1024
LIBP 210420Z AUTO 20006KT 9999 NCD 06/05 Q1024
LIBP 210350Z AUTO 21005KT 9999 NCD 07/06 Q1024
LIBP 210320Z AUTO 23004KT 9999 NCD 07/07 Q1024

Informazioni elaborate utilizzando, tra l’altro, dati e prodotti del Servizio Meteorologico dell’Aeronautica Militare pubblicati sul sito www.meteoam.it e della National Oceanic and Atmospheric Administration (NOAA)

Ultimi caricamenti...


MM7014 Aeronautica Militare Panavia Tornado IDS

 


I-CFAI Vigili del Fuoco Sikorksy S64

 


YU-RDA Swisslion Cessna C560XL

Questo sito non utilizza cookie di profilazione. Il sito utilizza cookie tecnici, di analisi anonima di prima parte e di terze parti per servizi di social network.